Time;durP1;ratioP1;P1;durP2;ratioP2;P2;SDS_P1;SDS_P2;PMS_P1;PMS_P2;Temp;Humidity;BMP_temperature;BMP_pressure;BME280_temperature;BME280_humidity;BME280_pressure;Samples;Min_cycle;Max_cycle;Signal;HPM_P1;HPM_P2
2021/09/09 00:01:09;;;;;;;36.63;22.33;;;14.60;59.00;;;;;;5116585;28;20079;-33
2021/09/09 00:03:36;;;;;;;35.80;21.92;;;14.50;59.10;;;;;;5117064;28;20028;-34
2021/09/09 00:06:01;;;;;;;40.75;22.55;;;14.50;60.00;;;;;;5116827;28;20318;-34
2021/09/09 00:08:27;;;;;;;38.28;21.23;;;14.40;59.60;;;;;;5116988;28;20024;-34
2021/09/09 00:10:52;;;;;;;41.40;22.40;;;14.40;59.60;;;;;;5116454;28;20027;-33
2021/09/09 00:13:18;;;;;;;38.22;22.20;;;14.40;59.80;;;;;;5116921;28;20050;-34
2021/09/09 00:15:44;;;;;;;34.78;21.17;;;14.30;59.80;;;;;;5116556;28;20094;-33
2021/09/09 00:18:10;;;;;;;44.15;21.88;;;14.30;60.00;;;;;;5116903;28;20484;-33
2021/09/09 00:20:36;;;;;;;40.58;21.88;;;14.20;60.00;;;;;;5115887;28;20315;-34
2021/09/09 00:23:02;;;;;;;36.83;20.73;;;14.20;60.10;;;;;;5116786;28;20027;-33
2021/09/09 00:25:28;;;;;;;38.05;20.35;;;14.20;60.20;;;;;;5116165;28;20324;-33
2021/09/09 00:27:53;;;;;;;36.33;20.10;;;14.20;60.20;;;;;;5116833;28;20031;-35
2021/09/09 00:30:19;;;;;;;38.08;20.02;;;14.10;60.20;;;;;;5116596;28;20038;-42
2021/09/09 00:32:45;;;;;;;34.80;19.63;;;14.10;60.30;;;;;;5116054;28;20023;-36
2021/09/09 00:35:11;;;;;;;36.72;19.70;;;14.10;60.40;;;;;;5116143;28;20024;-45
2021/09/09 00:37:36;;;;;;;37.40;19.15;;;14.10;60.50;;;;;;5116254;28;20028;-43
2021/09/09 00:40:03;;;;;;;43.00;19.75;;;14.10;60.60;;;;;;5098103;28;20043;-38
2021/09/09 00:42:29;;;;;;;40.38;19.13;;;14.00;60.60;;;;;;5116321;28;20031;-39
2021/09/09 00:44:54;;;;;;;36.88;18.40;;;14.00;60.70;;;;;;5116155;28;20297;-43
2021/09/09 00:47:20;;;;;;;30.05;18.33;;;14.00;60.80;;;;;;5116308;28;20483;-42
2021/09/09 00:49:46;;;;;;;30.73;17.63;;;14.00;60.80;;;;;;5116181;28;20323;-35
2021/09/09 00:52:13;;;;;;;32.38;18.15;;;13.90;60.80;;;;;;5116099;28;20364;-36
2021/09/09 00:54:40;;;;;;;31.92;17.77;;;13.90;60.90;;;;;;5115703;28;20051;-39
2021/09/09 00:57:06;;;;;;;29.90;17.48;;;13.90;61.00;;;;;;5115931;28;20038;-38
2021/09/09 00:59:33;;;;;;;31.42;18.30;;;13.90;61.00;;;;;;5115994;28;20024;-43
2021/09/09 01:01:59;;;;;;;33.65;18.25;;;13.90;61.20;;;;;;5116117;28;20022;-43
2021/09/09 01:04:25;;;;;;;30.30;16.50;;;13.80;61.20;;;;;;5116182;28;20319;-38
2021/09/09 01:06:51;;;;;;;31.23;16.40;;;13.80;61.20;;;;;;5115718;28;20032;-44
2021/09/09 01:09:17;;;;;;;31.35;16.27;;;13.80;61.30;;;;;;5115868;28;20020;-35
2021/09/09 01:11:43;;;;;;;31.83;16.95;;;13.80;61.30;;;;;;5115939;28;20030;-35
2021/09/09 01:14:12;;;;;;;28.23;16.88;;;13.80;61.40;;;;;;5116117;28;20128;-38
2021/09/09 01:16:39;;;;;;;31.70;17.40;;;13.80;61.50;;;;;;5115605;28;20122;-38
2021/09/09 01:19:05;;;;;;;29.45;16.58;;;13.80;61.50;;;;;;5115993;28;20479;-43
2021/09/09 01:21:32;;;;;;;35.17;16.90;;;13.80;61.50;;;;;;5115469;28;20030;-36
2021/09/09 01:23:59;;;;;;;30.88;16.95;;;13.80;61.60;;;;;;5115860;28;20119;-43
2021/09/09 01:26:27;;;;;;;32.47;17.38;;;13.80;61.60;;;;;;5115707;28;20153;-34
2021/09/09 01:28:54;;;;;;;29.42;16.05;;;13.70;61.70;;;;;;5115598;28;20028;-35
2021/09/09 01:31:21;;;;;;;26.45;15.93;;;13.70;61.80;;;;;;5115620;28;20024;-33
2021/09/09 01:33:47;;;;;;;27.23;16.45;;;13.70;61.80;;;;;;5119400;28;20031;-34
2021/09/09 01:36:13;;;;;;;26.08;16.20;;;13.70;61.90;;;;;;5119410;28;20034;-33
2021/09/09 01:38:38;;;;;;;24.13;14.82;;;13.60;61.90;;;;;;5119763;28;20287;-34
2021/09/09 01:41:04;;;;;;;27.17;15.80;;;13.60;61.90;;;;;;5119557;28;20104;-35
2021/09/09 01:43:31;;;;;;;24.80;15.30;;;13.60;62.10;;;;;;5119797;28;20057;-33
2021/09/09 01:45:56;;;;;;;26.42;15.57;;;13.60;62.20;;;;;;5119498;28;20051;-33
2021/09/09 01:48:22;;;;;;;25.88;15.40;;;13.50;62.30;;;;;;5119784;28;20051;-33
2021/09/09 01:50:48;;;;;;;27.67;15.85;;;13.50;62.40;;;;;;5119066;28;20464;-35
2021/09/09 01:53:14;;;;;;;28.35;16.35;;;13.50;62.50;;;;;;5119086;28;20155;-35
2021/09/09 01:55:39;;;;;;;33.03;17.08;;;13.50;62.40;;;;;;5118978;28;20042;-32
2021/09/09 01:58:05;;;;;;;29.08;14.70;;;13.50;62.40;;;;;;5119406;28;20060;-36
2021/09/09 02:00:31;;;;;;;27.25;16.30;;;13.50;62.40;;;;;;5118879;28;20430;-33
2021/09/09 02:02:56;;;;;;;27.95;14.70;;;13.50;62.40;;;;;;5119446;28;20392;-32
2021/09/09 02:05:22;;;;;;;28.90;16.00;;;13.50;62.40;;;;;;5118768;28;20364;-35
2021/09/09 02:07:48;;;;;;;31.98;15.98;;;13.50;62.50;;;;;;5119152;28;20035;-35
2021/09/09 02:10:19;;;;;;;25.65;14.70;;;13.50;62.50;;;;;;5119094;28;20438;-33
2021/09/09 02:12:46;;;;;;;25.20;15.55;;;13.50;62.50;;;;;;5118910;28;20036;-36
2021/09/09 02:15:12;;;;;;;27.00;16.30;;;13.50;62.60;;;;;;5119084;28;20434;-36
2021/09/09 02:17:37;;;;;;;26.00;15.05;;;13.50;62.70;;;;;;5118774;28;20031;-35
2021/09/09 02:20:05;;;;;;;26.23;14.63;;;13.50;62.60;;;;;;5118645;28;20035;-33
2021/09/09 02:22:31;;;;;;;25.10;14.82;;;13.50;63.20;;;;;;5118639;28;20027;-33
2021/09/09 02:24:56;;;;;;;24.75;15.07;;;13.50;62.60;;;;;;5118574;28;20447;-32
2021/09/09 02:27:22;;;;;;;25.90;14.75;;;13.50;62.70;;;;;;5118481;28;20027;-32
2021/09/09 02:29:48;;;;;;;30.45;16.52;;;13.50;62.70;;;;;;5118254;28;20046;-36
2021/09/09 02:32:13;;;;;;;28.35;15.40;;;13.50;62.70;;;;;;5118530;28;20117;-32
2021/09/09 02:34:39;;;;;;;29.77;15.82;;;13.50;62.70;;;;;;5118212;28;20036;-33
2021/09/09 02:37:05;;;;;;;32.08;15.65;;;13.50;62.70;;;;;;5118268;28;20083;-35
2021/09/09 02:39:31;;;;;;;23.30;15.15;;;13.50;62.80;;;;;;5118318;28;20038;-35
2021/09/09 02:41:56;;;;;;;27.33;15.35;;;13.50;62.80;;;;;;5118430;28;20453;-35
2021/09/09 02:44:22;;;;;;;28.80;16.13;;;13.50;62.90;;;;;;5118265;28;20031;-38
2021/09/09 02:46:48;;;;;;;32.00;17.13;;;13.50;62.90;;;;;;5118225;28;20060;-36
2021/09/09 02:49:14;;;;;;;29.40;15.75;;;13.50;62.90;;;;;;5118136;28;20044;-35
2021/09/09 02:51:39;;;;;;;32.30;17.55;;;13.50;63.50;;;;;;5118033;28;20057;-35
2021/09/09 02:54:05;;;;;;;38.40;16.67;;;13.50;63.50;;;;;;5117811;28;20043;-35
2021/09/09 02:56:32;;;;;;;23.35;14.27;;;13.50;63.00;;;;;;5118167;28;20015;-43
2021/09/09 02:58:58;;;;;;;30.52;15.95;;;13.40;62.90;;;;;;5118028;28;20115;-36
2021/09/09 03:01:25;;;;;;;31.60;18.02;;;13.40;62.90;;;;;;5117646;28;20051;-43
2021/09/09 03:03:50;;;;;;;33.70;18.98;;;13.40;62.90;;;;;;5117844;28;20039;-43
2021/09/09 03:06:16;;;;;;;31.15;17.98;;;13.40;62.90;;;;;;5117954;28;20024;-34
2021/09/09 03:08:42;;;;;;;31.90;18.55;;;13.40;63.00;;;;;;5118117;28;20039;-36
2021/09/09 03:11:08;;;;;;;34.35;18.95;;;13.40;63.10;;;;;;5117979;28;20036;-40
2021/09/09 03:13:33;;;;;;;31.63;17.83;;;13.40;63.00;;;;;;5117876;28;20111;-39
2021/09/09 03:15:59;;;;;;;33.15;19.60;;;13.40;63.00;;;;;;5099472;28;20400;-36
2021/09/09 03:18:25;;;;;;;27.98;17.05;;;13.40;63.10;;;;;;5117791;28;20401;-35
2021/09/09 03:20:52;;;;;;;29.30;17.85;;;13.30;63.10;;;;;;5117489;28;20028;-43
2021/09/09 03:23:18;;;;;;;29.65;17.23;;;13.30;63.20;;;;;;5118037;28;20089;-37
2021/09/09 03:25:44;;;;;;;29.33;16.80;;;13.30;63.20;;;;;;5117074;28;20135;-43
2021/09/09 03:28:09;;;;;;;30.13;18.13;;;13.30;63.30;;;;;;5117787;28;20066;-44
2021/09/09 03:30:35;;;;;;;31.15;17.55;;;13.20;63.40;;;;;;5117317;28;20035;-43
2021/09/09 03:33:01;;;;;;;26.98;15.70;;;13.20;63.50;;;;;;5117065;28;20028;-44
2021/09/09 03:35:26;;;;;;;24.88;15.15;;;13.20;63.60;;;;;;5117224;28;20103;-37
2021/09/09 03:37:52;;;;;;;32.40;17.77;;;13.20;63.70;;;;;;5117252;28;20024;-43
2021/09/09 03:40:18;;;;;;;27.63;17.15;;;13.20;63.70;;;;;;5117401;28;20031;-44
2021/09/09 03:42:43;;;;;;;26.05;16.70;;;13.20;63.80;;;;;;5117033;28;20342;-43
2021/09/09 03:45:10;;;;;;;27.05;16.60;;;13.10;63.80;;;;;;5117128;28;20046;-34
2021/09/09 03:47:35;;;;;;;30.90;18.13;;;13.10;63.80;;;;;;5116938;28;20032;-44
2021/09/09 03:50:01;;;;;;;31.02;16.85;;;13.10;63.90;;;;;;5116726;28;20081;-44
2021/09/09 03:52:27;;;;;;;31.08;17.55;;;13.10;63.90;;;;;;5116645;28;20038;-34
2021/09/09 03:54:53;;;;;;;33.83;17.52;;;13.10;64.10;;;;;;5115789;28;20431;-35
2021/09/09 03:57:19;;;;;;;30.13;16.98;;;13.20;64.10;;;;;;5116606;28;20035;-34
2021/09/09 03:59:44;;;;;;;32.35;18.13;;;13.20;64.10;;;;;;5116841;28;20023;-40
2021/09/09 04:02:10;;;;;;;30.40;17.13;;;13.20;64.30;;;;;;5116785;28;20027;-35
2021/09/09 04:04:36;;;;;;;33.53;18.52;;;13.20;64.20;;;;;;5116873;28;20318;-44
2021/09/09 04:07:01;;;;;;;34.85;18.60;;;13.20;64.30;;;;;;5116134;28;20049;-43
2021/09/09 04:09:27;;;;;;;32.65;16.90;;;13.20;64.30;;;;;;5116621;28;20351;-43
2021/09/09 04:11:53;;;;;;;31.13;18.63;;;13.20;64.30;;;;;;5116431;28;20027;-34
2021/09/09 04:14:18;;;;;;;38.78;19.38;;;13.30;64.30;;;;;;5116240;28;20030;-43
2021/09/09 04:16:44;;;;;;;31.65;18.63;;;13.30;64.30;;;;;;5115701;28;20028;-43
2021/09/09 04:19:10;;;;;;;37.70;18.48;;;13.40;64.40;;;;;;5115867;28;20028;-35
2021/09/09 04:21:36;;;;;;;30.10;17.10;;;13.40;64.40;;;;;;5115827;28;20023;-37
2021/09/09 04:24:01;;;;;;;30.65;15.18;;;13.40;64.30;;;;;;5116003;28;20039;-36
2021/09/09 04:26:27;;;;;;;23.60;15.45;;;13.50;64.30;;;;;;5116151;28;20088;-32
2021/09/09 04:28:52;;;;;;;35.78;17.55;;;13.50;64.10;;;;;;5115827;28;20050;-32
2021/09/09 04:31:18;;;;;;;26.83;16.02;;;13.60;64.20;;;;;;5116273;28;20419;-35
2021/09/09 04:33:44;;;;;;;25.80;15.43;;;13.60;64.20;;;;;;5116294;28;20461;-35
2021/09/09 04:36:09;;;;;;;29.17;15.43;;;13.60;64.70;;;;;;5116265;28;20015;-33
2021/09/09 04:38:35;;;;;;;24.00;14.88;;;13.70;64.10;;;;;;5116046;28;20299;-32
2021/09/09 04:41:01;;;;;;;29.52;15.57;;;13.70;64.10;;;;;;5116143;28;20032;-35
2021/09/09 04:43:26;;;;;;;33.33;16.55;;;13.80;64.10;;;;;;5116244;28;20399;-35
2021/09/09 04:45:52;;;;;;;22.95;13.90;;;13.90;64.20;;;;;;5116136;28;20042;-34
2021/09/09 04:48:18;;;;;;;33.58;15.80;;;13.90;64.10;;;;;;5116560;28;20031;-32
2021/09/09 04:50:44;;;;;;;24.48;14.20;;;14.00;64.20;;;;;;5115810;28;20040;-33
2021/09/09 04:53:09;;;;;;;37.80;14.48;;;14.10;64.20;;;;;;5115865;28;20047;-33
2021/09/09 04:55:35;;;;;;;32.75;13.85;;;14.10;64.10;;;;;;5115720;28;20360;-36
2021/09/09 04:58:01;;;;;;;29.17;15.07;;;14.20;64.00;;;;;;5116113;28;20059;-33
2021/09/09 05:00:26;;;;;;;24.33;14.15;;;14.30;63.90;;;;;;5115664;28;20028;-34
2021/09/09 05:02:52;;;;;;;26.30;15.20;;;14.40;63.90;;;;;;5115851;28;20032;-32
2021/09/09 05:05:18;;;;;;;25.58;14.38;;;14.40;63.80;;;;;;5115593;28;20035;-32
2021/09/09 05:07:44;;;;;;;26.25;15.50;;;14.50;63.80;;;;;;5118330;28;20040;-35
2021/09/09 05:10:10;;;;;;;28.20;15.25;;;14.60;64.30;;;;;;5119667;28;20039;-32
2021/09/09 05:12:36;;;;;;;26.40;14.82;;;14.70;63.80;;;;;;5119682;28;20407;-32
2021/09/09 05:15:02;;;;;;;23.95;14.77;;;14.70;63.80;;;;;;5119882;28;20093;-34
2021/09/09 05:17:27;;;;;;;30.42;16.48;;;14.80;63.80;;;;;;5119263;28;20028;-33
2021/09/09 05:19:53;;;;;;;28.67;14.75;;;14.90;63.90;;;;;;5119465;28;20031;-34
2021/09/09 05:22:19;;;;;;;26.98;16.05;;;15.00;64.00;;;;;;5119747;28;20031;-32
2021/09/09 05:24:44;;;;;;;21.70;13.30;;;15.10;64.10;;;;;;5119087;28;20435;-32
2021/09/09 05:27:10;;;;;;;24.20;14.90;;;15.10;64.10;;;;;;5101259;28;20027;-35
2021/09/09 05:29:36;;;;;;;26.63;15.18;;;15.20;64.10;;;;;;5119711;28;20449;-32
2021/09/09 05:32:01;;;;;;;27.25;14.88;;;15.30;64.10;;;;;;5119515;28;20092;-34
2021/09/09 05:34:27;;;;;;;26.35;13.52;;;15.40;64.10;;;;;;5118578;28;20121;-38
2021/09/09 05:36:53;;;;;;;23.88;13.60;;;15.50;64.10;;;;;;5119014;28;20078;-36
2021/09/09 05:39:18;;;;;;;29.70;14.32;;;15.60;64.10;;;;;;5118649;28;20024;-44
2021/09/09 05:41:44;;;;;;;28.30;14.02;;;15.70;64.10;;;;;;5118849;28;20024;-42
2021/09/09 05:44:09;;;;;;;25.85;14.20;;;15.80;64.60;;;;;;5118903;28;20123;-43
2021/09/09 05:46:35;;;;;;;28.17;17.40;;;15.90;64.00;;;;;;5118836;28;20117;-44
2021/09/09 05:49:01;;;;;;;26.25;14.68;;;16.10;64.10;;;;;;5119072;28;20054;-43
2021/09/09 05:51:26;;;;;;;26.20;14.40;;;16.20;63.90;;;;;;5118607;28;20315;-44
2021/09/09 05:53:52;;;;;;;26.10;15.75;;;16.30;63.80;;;;;;5100276;28;20071;-44
2021/09/09 05:56:18;;;;;;;20.58;13.82;;;16.40;63.60;;;;;;5118663;28;20036;-40
2021/09/09 05:58:43;;;;;;;24.45;13.45;;;16.60;63.50;;;;;;5118197;28;20028;-44
2021/09/09 06:01:09;;;;;;;24.23;12.52;;;16.70;63.50;;;;;;5118506;28;20056;-40
2021/09/09 06:03:35;;;;;;;20.85;13.82;;;16.80;63.20;;;;;;5118188;28;20055;-44
2021/09/09 06:06:04;;;;;;;17.77;12.27;;;17.00;62.90;;;;;;5118651;28;20027;-43
2021/09/09 06:08:35;;;;;;;20.27;13.38;;;17.10;62.70;;;;;;5118825;28;20074;-44
2021/09/09 06:11:01;;;;;;;24.00;13.95;;;17.30;62.50;;;;;;5118451;28;20032;-39
2021/09/09 06:13:27;;;;;;;23.83;12.93;;;17.40;62.30;;;;;;5118836;28;20290;-41
2021/09/09 06:15:53;;;;;;;26.45;13.35;;;17.50;61.90;;;;;;5118405;28;20424;-43
2021/09/09 06:18:19;;;;;;;25.38;13.60;;;17.60;62.40;;;;;;5118056;28;20156;-44
2021/09/09 06:20:47;;;;;;;24.48;13.85;;;17.80;61.70;;;;;;5117943;28;20032;-37
2021/09/09 06:23:13;;;;;;;21.30;13.18;;;17.90;61.50;;;;;;5118903;28;20119;-38
2021/09/09 06:25:39;;;;;;;20.13;13.35;;;18.00;61.40;;;;;;5118129;28;20082;-37
2021/09/09 06:28:05;;;;;;;24.33;12.82;;;18.10;61.30;;;;;;5118557;28;20050;-44
2021/09/09 06:30:31;;;;;;;23.85;15.05;;;18.30;61.40;;;;;;5118192;28;20039;-41
2021/09/09 06:32:56;;;;;;;21.60;14.30;;;18.40;61.20;;;;;;5118367;28;20038;-42
2021/09/09 06:35:22;;;;;;;22.15;13.20;;;18.50;60.90;;;;;;5117833;28;20081;-40
2021/09/09 06:37:48;;;;;;;18.88;12.70;;;18.50;60.80;;;;;;5118368;28;20042;-38
2021/09/09 06:40:14;;;;;;;22.00;13.50;;;18.70;60.60;;;;;;5118173;28;20059;-44
2021/09/09 06:42:40;;;;;;;21.38;12.93;;;18.80;60.20;;;;;;5117930;28;20025;-41
2021/09/09 06:45:06;;;;;;;17.85;11.75;;;18.90;60.00;;;;;;5118404;28;20403;-40
2021/09/09 06:47:32;;;;;;;27.35;15.65;;;19.00;60.00;;;;;;5117951;28;20031;-40
2021/09/09 06:49:58;;;;;;;25.85;16.23;;;19.10;59.60;;;;;;5117930;28;20335;-40
2021/09/09 06:52:23;;;;;;;18.80;12.23;;;19.20;59.40;;;;;;5117637;28;20039;-44
2021/09/09 06:54:49;;;;;;;19.20;12.93;;;19.20;58.90;;;;;;5117663;28;20098;-44
2021/09/09 06:57:15;;;;;;;17.45;11.48;;;19.40;58.90;;;;;;5117746;28;20028;-39
2021/09/09 06:59:41;;;;;;;18.13;11.95;;;19.40;58.30;;;;;;5117439;28;20318;-41
2021/09/09 07:02:06;;;;;;;22.77;13.15;;;19.50;57.90;;;;;;5117839;28;20103;-47
2021/09/09 07:04:32;;;;;;;16.58;11.25;;;19.60;57.60;;;;;;5117545;28;20397;-34
2021/09/09 07:06:58;;;;;;;17.38;11.48;;;19.70;57.40;;;;;;5117297;28;20088;-35
2021/09/09 07:09:23;;;;;;;18.58;11.70;;;19.80;57.00;;;;;;5117398;28;20031;-35
2021/09/09 07:11:49;;;;;;;21.08;11.50;;;19.90;57.00;;;;;;5117583;28;20065;-36
2021/09/09 07:14:15;;;;;;;15.27;10.40;;;19.90;57.60;;;;;;5117130;28;20081;-35
2021/09/09 07:16:40;;;;;;;22.52;13.75;;;20.00;57.10;;;;;;5117213;28;20311;-33
2021/09/09 07:19:06;;;;;;;20.25;11.45;;;20.10;57.50;;;;;;5117178;28;20305;-34
2021/09/09 07:21:31;;;;;;;33.55;18.40;;;20.20;58.30;;;;;;5116872;28;20399;-33
2021/09/09 07:23:57;;;;;;;19.52;12.55;;;20.30;58.10;;;;;;5117180;28;20039;-35
2021/09/09 07:26:23;;;;;;;21.02;13.02;;;20.30;58.40;;;;;;5116907;28;20027;-33
2021/09/09 07:28:48;;;;;;;22.88;14.85;;;20.40;58.40;;;;;;5116625;28;20039;-33
2021/09/09 07:31:14;;;;;;;15.98;11.18;;;20.50;57.90;;;;;;5116399;28;20300;-36
2021/09/09 07:33:40;;;;;;;19.08;11.13;;;20.50;58.20;;;;;;5116988;28;20031;-33
2021/09/09 07:36:07;;;;;;;21.70;14.50;;;20.60;58.60;;;;;;5116842;28;20304;-34
2021/09/09 07:38:34;;;;;;;27.55;18.45;;;20.60;58.70;;;;;;5117036;28;20020;-35
2021/09/09 07:41:00;;;;;;;23.17;15.25;;;20.70;59.50;;;;;;5116709;28;20123;-35
2021/09/09 07:43:26;;;;;;;18.90;14.20;;;20.70;59.80;;;;;;5116962;28;20031;-36
2021/09/09 07:45:51;;;;;;;19.33;13.57;;;20.80;59.70;;;;;;5116900;28;20031;-33
2021/09/09 07:48:17;;;;;;;26.33;16.60;;;20.80;59.70;;;;;;5098678;28;20035;-34
2021/09/09 07:50:44;;;;;;;21.15;14.35;;;20.90;59.70;;;;;;5116165;28;20038;-36
2021/09/09 07:53:10;;;;;;;17.13;12.60;;;20.90;59.70;;;;;;5116714;28;20079;-33
2021/09/09 07:55:36;;;;;;;24.98;14.18;;;21.00;59.50;;;;;;5116295;28;20323;-35
2021/09/09 07:58:02;;;;;;;20.45;12.70;;;21.10;59.50;;;;;;5116810;28;20028;-34
2021/09/09 08:00:28;;;;;;;21.17;12.63;;;21.10;59.20;;;;;;5116504;28;20023;-33
2021/09/09 08:02:54;;;;;;;22.73;12.40;;;21.20;59.30;;;;;;5116430;28;20038;-32
2021/09/09 08:05:19;;;;;;;22.95;16.42;;;21.20;59.20;;;;;;5116372;28;20031;-33
2021/09/09 08:07:46;;;;;;;22.15;13.65;;;21.30;59.20;;;;;;5116159;28;20031;-37
2021/09/09 08:10:14;;;;;;;23.88;13.35;;;21.30;59.10;;;;;;5116154;28;20039;-33
2021/09/09 08:12:41;;;;;;;35.85;13.80;;;21.30;58.50;;;;;;5115932;28;20028;-36
2021/09/09 08:15:07;;;;;;;23.45;13.00;;;21.30;58.30;;;;;;5116040;28;20234;-33
2021/09/09 08:17:33;;;;;;;26.30;17.52;;;21.40;58.60;;;;;;5116150;28;20038;-35
2021/09/09 08:20:00;;;;;;;23.30;14.52;;;21.40;58.40;;;;;;5119150;27;20112;-36
2021/09/09 08:22:27;;;;;;;26.38;17.13;;;21.40;58.50;;;;;;5136420;27;20133;-33
2021/09/09 08:24:56;;;;;;;18.88;12.40;;;21.50;58.40;;;;;;5136146;27;20042;-32
2021/09/09 08:27:22;;;;;;;27.50;15.60;;;21.50;58.80;;;;;;5136285;27;20033;-32
2021/09/09 08:29:48;;;;;;;23.83;12.82;;;21.50;58.60;;;;;;5136431;27;20318;-32
2021/09/09 08:32:14;;;;;;;20.73;14.18;;;21.50;58.90;;;;;;5136218;27;20023;-32
2021/09/09 08:34:39;;;;;;;21.42;12.25;;;21.60;58.40;;;;;;5135876;27;20107;-33
2021/09/09 08:37:05;;;;;;;19.80;14.77;;;21.60;58.40;;;;;;5136775;27;20034;-33
2021/09/09 08:39:31;;;;;;;15.80;10.65;;;21.70;58.50;;;;;;5135825;27;20035;-32
2021/09/09 08:41:57;;;;;;;19.95;11.10;;;21.70;57.90;;;;;;5135851;27;20395;-33
2021/09/09 08:44:23;;;;;;;18.23;12.60;;;21.80;58.00;;;;;;5136290;27;20023;-35
2021/09/09 08:46:51;;;;;;;23.02;13.10;;;21.80;58.10;;;;;;5135954;28;20035;-35
2021/09/09 08:49:25;;;;;;;18.98;13.10;;;21.80;57.90;;;;;;5135585;28;20474;-36
2021/09/09 08:51:53;;;;;;;20.67;12.30;;;21.90;57.30;;;;;;5136127;28;20031;-36
2021/09/09 08:54:19;;;;;;;23.58;13.15;;;21.90;57.20;;;;;;5135463;28;20062;-33
2021/09/09 08:56:46;;;;;;;21.08;13.07;;;22.00;56.90;;;;;;5136042;28;20034;-33
2021/09/09 08:59:11;;;;;;;15.75;10.38;;;22.00;56.30;;;;;;5135760;28;20075;-33
2021/09/09 09:02:07;;;;;;;17.05;12.95;;;22.10;56.30;;;;;;5136146;28;20038;-34
2021/09/09 09:04:34;;;;;;;19.00;12.02;;;22.20;56.40;;;;;;5134947;28;20059;-34
2021/09/09 09:07:01;;;;;;;15.32;11.60;;;22.20;56.20;;;;;;5135844;28;20105;-36
2021/09/09 09:09:33;;;;;;;17.40;11.30;;;22.20;56.30;;;;;;5135919;28;20426;-36
2021/09/09 09:11:59;;;;;;;20.95;13.35;;;22.30;55.70;;;;;;5135946;28;20045;-36
2021/09/09 09:14:26;;;;;;;17.95;11.63;;;22.40;55.50;;;;;;5135985;28;20023;-34
2021/09/09 09:16:54;;;;;;;17.13;11.98;;;22.30;55.70;;;;;;5135861;28;20120;-35
2021/09/09 09:19:24;;;;;;;16.60;10.57;;;22.40;55.50;;;;;;5136049;28;20038;-36
2021/09/09 09:22:11;;;;;;;13.35;9.65;;;22.40;55.60;;;;;;5136019;28;20104;-36
2021/09/09 09:24:49;;;;;;;19.90;11.70;;;22.60;55.70;;;;;;5135918;28;20055;-36
2021/09/09 09:27:20;;;;;;;15.88;10.75;;;22.60;55.40;;;;;;5135416;28;20031;-37
2021/09/09 09:30:00;;;;;;;;;;;22.60;55.40;;;;;;5136215;28;20084;-33
2021/09/09 09:32:26;;;;;;;15.82;10.27;;;22.60;55.50;;;;;;5136096;28;20002;-33
2021/09/09 09:35:11;;;;;;;17.55;11.57;;;22.70;55.50;;;;;;5117619;28;20106;-37
2021/09/09 09:37:48;;;;;;;21.10;9.95;;;22.70;55.20;;;;;;5135686;28;20047;-33
2021/09/09 09:40:26;;;;;;;14.73;9.70;;;22.70;55.10;;;;;;5136024;28;20030;-33
2021/09/09 09:42:52;;;;;;;15.40;9.45;;;22.80;54.40;;;;;;5136224;28;20070;-34
2021/09/09 09:45:18;;;;;;;14.38;9.93;;;22.80;53.80;;;;;;5136095;28;20047;-35
2021/09/09 09:47:43;;;;;;;19.52;10.70;;;22.80;53.70;;;;;;5136039;28;20058;-34
2021/09/09 09:50:16;;;;;;;15.45;9.02;;;22.80;53.70;;;;;;5136142;28;20044;-36
2021/09/09 09:52:42;;;;;;;13.10;9.27;;;22.90;53.40;;;;;;5117986;27;20110;-34
2021/09/09 09:55:09;;;;;;;16.33;9.00;;;22.90;53.50;;;;;;5139319;27;20126;-35
2021/09/09 09:57:50;;;;;;;11.88;8.50;;;22.90;53.40;;;;;;5139342;27;20027;-36
2021/09/09 10:00:16;;;;;;;13.50;8.45;;;23.00;53.40;;;;;;5139623;27;20019;-33
2021/09/09 10:02:42;;;;;;;16.48;10.35;;;23.10;53.60;;;;;;5139101;27;20296;-37
2021/09/09 10:05:09;;;;;;;17.13;11.48;;;23.10;53.30;;;;;;5139363;27;20163;-35
2021/09/09 10:07:34;;;;;;;12.15;8.85;;;23.20;53.60;;;;;;5138905;27;20100;-33
2021/09/09 10:10:00;;;;;;;14.63;10.80;;;23.30;53.50;;;;;;5138874;27;20153;-34
2021/09/09 10:12:26;;;;;;;21.63;11.52;;;23.30;53.50;;;;;;5138965;27;20394;-33
2021/09/09 10:14:55;;;;;;;16.75;9.30;;;23.30;53.50;;;;;;5139267;27;20345;-33
2021/09/09 10:17:23;;;;;;;15.65;10.35;;;23.40;54.10;;;;;;5138672;27;20406;-34
2021/09/09 10:19:49;;;;;;;19.60;10.23;;;23.50;53.90;;;;;;5138735;27;20126;-35
2021/09/09 10:22:20;;;;;;;13.27;9.68;;;23.50;54.30;;;;;;5138628;27;20387;-33
2021/09/09 10:25:02;;;;;;;13.82;9.45;;;23.60;54.00;;;;;;5138580;27;20039;-36
2021/09/09 10:27:34;;;;;;;12.70;9.05;;;23.60;53.60;;;;;;5138544;27;20045;-36
2021/09/09 10:30:06;;;;;;;26.52;11.75;;;23.70;54.40;;;;;;5138881;27;20106;-33
2021/09/09 10:32:37;;;;;;;14.98;9.50;;;23.70;54.00;;;;;;5138839;27;20035;-35
2021/09/09 10:35:18;;;;;;;13.77;9.25;;;23.80;53.90;;;;;;5138846;27;20068;-33
2021/09/09 10:37:51;;;;;;;12.55;8.73;;;23.90;54.10;;;;;;5138469;27;20284;-34
2021/09/09 10:40:31;;;;;;;13.05;8.93;;;24.00;53.80;;;;;;5138720;27;20023;-33
2021/09/09 10:43:04;;;;;;;;;;;24.10;53.60;;;;;;5120651;27;20401;-34
2021/09/09 10:45:33;;;;;;;12.35;8.20;;;24.10;53.70;;;;;;5138214;27;19908;-36
2021/09/09 10:48:03;;;;;;;15.35;8.95;;;24.20;53.80;;;;;;5138855;27;20047;-35
2021/09/09 10:50:29;;;;;;;;;;;24.20;53.90;;;;;;5138820;27;20027;-34
2021/09/09 10:53:04;;;;;;;13.38;10.60;;;24.30;53.90;;;;;;5137893;27;20199;-35
2021/09/09 10:55:37;;;;;;;16.50;9.07;;;24.40;53.30;;;;;;5120212;27;20055;-34
2021/09/09 10:58:12;;;;;;;12.05;9.45;;;24.50;53.30;;;;;;5138640;27;20027;-34
2021/09/09 11:00:58;;;;;;;16.45;11.02;;;24.50;52.30;;;;;;5137764;27;20050;-36
2021/09/09 11:03:47;;;;;;;13.90;9.05;;;24.70;51.20;;;;;;5138496;27;20027;-37
2021/09/09 11:06:20;;;;;;;13.75;8.00;;;24.70;50.50;;;;;;5138111;27;20330;-36
2021/09/09 11:08:55;;;;;;;12.05;8.38;;;24.80;50.10;;;;;;5137893;27;20031;-34
2021/09/09 11:11:22;;;;;;;15.93;9.90;;;24.90;50.10;;;;;;5137904;27;20016;-37
2021/09/09 11:14:08;;;;;;;10.98;8.52;;;24.90;49.90;;;;;;5119174;27;20035;-37
2021/09/09 11:16:37;;;;;;;14.52;9.00;;;25.10;49.60;;;;;;5137407;27;20055;-34
2021/09/09 11:19:04;;;;;;;14.75;9.48;;;25.20;50.00;;;;;;5137228;27;20479;-35
2021/09/09 11:21:35;;;;;;;16.38;10.88;;;25.30;50.70;;;;;;5137436;27;20433;-36
2021/09/09 11:24:02;;;;;;;11.70;8.95;;;25.30;50.90;;;;;;5137667;27;20084;-37
2021/09/09 11:26:28;;;;;;;12.57;9.70;;;25.40;49.20;;;;;;5137851;27;20085;-36
2021/09/09 11:28:55;;;;;;;11.32;9.05;;;25.50;48.70;;;;;;5137608;27;20035;-36
2021/09/09 11:31:26;;;;;;;11.57;7.68;;;25.70;49.50;;;;;;5137482;27;20390;-36
2021/09/09 11:33:53;;;;;;;11.73;8.13;;;25.70;48.10;;;;;;5137557;27;20039;-37
2021/09/09 11:36:23;;;;;;;12.75;8.30;;;25.80;48.40;;;;;;5137500;27;20039;-35
2021/09/09 11:38:51;;;;;;;16.48;8.82;;;25.90;48.30;;;;;;5137397;27;20039;-34
2021/09/09 11:41:19;;;;;;;19.80;13.48;;;26.00;47.40;;;;;;5137151;27;20019;-35
2021/09/09 11:43:54;;;;;;;12.77;9.23;;;26.10;47.40;;;;;;5137198;27;20035;-42
2021/09/09 11:46:40;;;;;;;13.23;8.30;;;26.20;47.20;;;;;;5137052;27;20076;-34
2021/09/09 11:49:07;;;;;;;12.73;7.55;;;26.40;46.60;;;;;;5137088;27;20042;-34
2021/09/09 11:51:40;;;;;;;14.30;7.95;;;26.50;46.40;;;;;;5136974;27;20228;-34
2021/09/09 11:54:17;;;;;;;14.70;8.43;;;26.70;45.90;;;;;;5136699;27;20047;-34
2021/09/09 11:56:44;;;;;;;11.13;8.02;;;26.90;45.70;;;;;;5136482;27;20027;-35
2021/09/09 11:59:17;;;;;;;10.10;7.97;;;27.00;45.30;;;;;;5136879;27;20075;-34
2021/09/09 12:01:43;;;;;;;12.10;8.52;;;27.20;45.20;;;;;;5118526;27;20019;-36
2021/09/09 12:04:11;;;;;;;10.60;8.27;;;27.40;44.90;;;;;;5137201;27;20062;-34
2021/09/09 12:06:38;;;;;;;12.60;8.25;;;27.50;44.40;;;;;;5136929;27;20335;-37
2021/09/09 12:09:04;;;;;;;13.68;8.57;;;27.70;44.00;;;;;;5136965;27;20115;-34
2021/09/09 12:11:30;;;;;;;15.43;8.95;;;27.80;44.00;;;;;;5136921;27;20412;-34
2021/09/09 12:13:56;;;;;;;14.48;7.53;;;27.90;44.00;;;;;;5136908;27;20118;-37
2021/09/09 12:16:24;;;;;;;10.93;7.57;;;28.10;44.00;;;;;;5117940;27;20058;-34
2021/09/09 12:19:10;;;;;;;13.05;8.45;;;28.20;43.70;;;;;;5136798;27;20106;-35
2021/09/09 12:21:36;;;;;;;12.23;7.53;;;28.40;43.30;;;;;;5136478;27;20023;-34
2021/09/09 12:24:11;;;;;;;10.60;8.13;;;28.50;43.40;;;;;;5136641;27;20039;-36
2021/09/09 12:26:39;;;;;;;12.55;8.20;;;28.60;42.70;;;;;;5136310;27;20031;-34
2021/09/09 12:29:18;;;;;;;11.90;8.48;;;28.80;42.40;;;;;;5136500;27;20100;-34
2021/09/09 12:31:45;;;;;;;9.90;8.27;;;29.00;41.80;;;;;;5136612;27;20035;-36